createdAt,value
2023-01-27T00:01:20.384Z,4.15
2023-01-27T00:03:50.370Z,4.22
2023-01-27T00:06:20.835Z,4.26
2023-01-27T00:08:50.840Z,4.15
2023-01-27T00:11:33.170Z,4.14
2023-01-27T00:14:05.739Z,4.19
2023-01-27T00:16:36.512Z,4.20
2023-01-27T00:19:06.614Z,4.22
2023-01-27T00:21:48.997Z,4.19
2023-01-27T00:24:31.340Z,4.14
2023-01-27T00:27:01.393Z,4.16
2023-01-27T00:29:34.077Z,4.15
2023-01-27T00:32:16.451Z,4.13
2023-01-27T00:34:46.476Z,4.19
2023-01-27T00:37:16.809Z,4.23
2023-01-27T00:39:46.843Z,4.26
2023-01-27T00:42:16.814Z,4.30
2023-01-27T00:45:09.863Z,4.26
2023-01-27T00:47:39.902Z,4.31
2023-01-27T00:50:12.552Z,4.33
2023-01-27T00:52:42.732Z,4.29
2023-01-27T00:55:16.019Z,4.29
2023-01-27T00:57:47.236Z,4.27
2023-01-27T01:00:20.703Z,4.25
2023-01-27T01:02:50.845Z,4.24
2023-01-27T01:05:20.857Z,4.28
2023-01-27T01:07:50.963Z,4.30
2023-01-27T01:10:21.071Z,4.21
2023-01-27T01:12:50.999Z,4.24
2023-01-27T01:15:24.513Z,4.28
2023-01-27T01:17:54.588Z,4.24
2023-01-27T01:20:25.052Z,4.14
2023-01-27T01:22:55.002Z,4.10
2023-01-27T01:25:25.023Z,4.13
2023-01-27T01:27:54.983Z,4.18
2023-01-27T01:30:27.677Z,4.23
2023-01-27T01:32:57.987Z,4.14
2023-01-27T01:35:31.116Z,4.08
2023-01-27T01:38:01.603Z,4.12
2023-01-27T01:40:31.664Z,4.13
2023-01-27T01:43:03.663Z,4.17
2023-01-27T01:45:53.405Z,4.22
2023-01-27T01:48:31.791Z,4.23
2023-01-27T01:51:04.824Z,4.24
2023-01-27T01:53:40.220Z,4.25
2023-01-27T01:56:16.903Z,4.27
2023-01-27T01:58:48.242Z,4.26
2023-01-27T02:01:21.857Z,4.29
2023-01-27T02:03:56.195Z,4.31
2023-01-27T02:06:26.942Z,4.33
2023-01-27T02:08:58.249Z,4.39
2023-01-27T02:11:31.884Z,4.43
2023-01-27T02:14:03.811Z,4.42
2023-01-27T02:16:36.734Z,4.37
2023-01-27T02:19:07.482Z,4.35
2023-01-27T02:21:37.687Z,4.33
2023-01-27T02:24:16.385Z,4.36
2023-01-27T02:26:49.571Z,4.35
2023-01-27T02:29:19.696Z,4.34
2023-01-27T02:31:49.854Z,4.33
2023-01-27T02:34:23.751Z,4.36
2023-01-27T02:37:00.206Z,4.36
2023-01-27T02:39:35.788Z,4.33
2023-01-27T02:42:10.490Z,4.24
2023-01-27T02:44:40.921Z,4.16
2023-01-27T02:47:11.318Z,4.24
2023-01-27T02:50:01.832Z,4.27
2023-01-27T02:52:31.857Z,4.30
2023-01-27T02:55:02.294Z,4.32
2023-01-27T02:57:36.078Z,4.27
2023-01-27T03:00:35.225Z,4.27
2023-01-27T03:03:05.212Z,4.34
2023-01-27T03:05:35.310Z,4.40
2023-01-27T03:08:05.267Z,4.38
2023-01-27T03:10:35.446Z,4.41
2023-01-27T03:13:08.059Z,4.47
2023-01-27T03:15:54.969Z,4.50
2023-01-27T03:18:25.563Z,4.50
2023-01-27T03:21:04.143Z,4.50
2023-01-27T03:23:35.821Z,4.53
2023-01-27T03:26:10.989Z,4.58
2023-01-27T03:29:07.071Z,4.61
2023-01-27T03:31:39.542Z,4.61
2023-01-27T03:34:10.121Z,4.58
2023-01-27T03:36:58.079Z,4.56
2023-01-27T03:39:40.463Z,4.44
2023-01-27T03:42:22.937Z,4.46
2023-01-27T03:45:09.335Z,4.50
2023-01-27T03:47:39.387Z,4.55
2023-01-27T03:50:11.471Z,4.55
2023-01-27T03:52:41.558Z,4.56
2023-01-27T03:55:12.806Z,4.55
2023-01-27T03:57:43.160Z,4.51
2023-01-27T04:00:25.052Z,4.39
2023-01-27T04:03:07.485Z,4.41
2023-01-27T04:05:50.037Z,4.47
2023-01-27T04:08:19.972Z,4.53
2023-01-27T04:11:09.930Z,4.52
2023-01-27T04:13:48.863Z,4.42
2023-01-27T04:16:29.067Z,4.36
2023-01-27T04:18:59.953Z,4.44
2023-01-27T04:21:30.009Z,4.47
2023-01-27T04:24:00.194Z,4.35
2023-01-27T04:26:33.319Z,4.34
2023-01-27T04:29:03.931Z,4.43
2023-01-27T04:31:36.664Z,4.50
2023-01-27T04:34:06.843Z,4.50
2023-01-27T04:36:37.032Z,4.46
2023-01-27T04:39:07.152Z,4.50
2023-01-27T04:41:37.817Z,4.56
2023-01-27T04:44:10.327Z,4.63
2023-01-27T04:46:43.045Z,4.68
2023-01-27T04:49:13.602Z,4.70
2023-01-27T04:51:44.744Z,4.67
2023-01-27T04:54:15.529Z,4.66
2023-01-27T04:56:56.820Z,4.68
2023-01-27T04:59:26.746Z,4.72
2023-01-27T05:01:59.576Z,4.78
2023-01-27T05:04:29.667Z,4.77
2023-01-27T05:06:59.665Z,4.71
2023-01-27T05:09:37.049Z,4.66
2023-01-27T05:12:07.807Z,4.67
2023-01-27T05:14:37.751Z,4.70
2023-01-27T05:17:10.420Z,4.66
2023-01-27T05:19:40.386Z,4.61
2023-01-27T05:22:11.303Z,4.64
2023-01-27T05:24:41.621Z,4.67
2023-01-27T05:27:11.626Z,4.74
2023-01-27T05:29:41.755Z,4.75
2023-01-27T05:32:14.337Z,4.81
2023-01-27T05:34:44.403Z,4.80
2023-01-27T05:37:14.461Z,4.78
2023-01-27T05:39:47.754Z,4.79
2023-01-27T05:42:17.788Z,4.84
2023-01-27T05:44:49.635Z,4.84
2023-01-27T05:47:23.123Z,4.88
2023-01-27T05:49:53.172Z,4.88
2023-01-27T05:52:23.291Z,4.89
2023-01-27T05:54:53.433Z,4.84
2023-01-27T05:57:23.452Z,4.85
2023-01-27T05:59:53.474Z,4.81
2023-01-27T06:02:26.143Z,4.81
2023-01-27T06:04:56.202Z,4.85
2023-01-27T06:07:26.744Z,4.89
2023-01-27T06:09:56.936Z,4.86
2023-01-27T06:12:26.982Z,4.85
2023-01-27T06:14:59.620Z,4.83
2023-01-27T06:17:32.331Z,4.80
2023-01-27T06:20:02.583Z,4.76
2023-01-27T06:22:32.526Z,4.78
2023-01-27T06:25:02.454Z,4.78
2023-01-27T06:27:35.509Z,4.78
2023-01-27T06:30:05.489Z,4.80
2023-01-27T06:32:38.828Z,4.87
2023-01-27T06:35:10.193Z,4.90
2023-01-27T06:37:40.148Z,4.94
2023-01-27T06:40:11.743Z,4.95
2023-01-27T06:42:45.778Z,4.95
2023-01-27T06:45:16.395Z,4.93
2023-01-27T06:47:49.139Z,4.91
2023-01-27T06:50:19.385Z,4.93
2023-01-27T06:52:49.911Z,4.93
2023-01-27T06:55:20.105Z,4.96
2023-01-27T06:57:51.967Z,4.97
2023-01-27T07:00:22.940Z,4.98
2023-01-27T07:02:58.210Z,4.97
2023-01-27T07:05:28.298Z,4.96
2023-01-27T07:07:58.490Z,4.97
2023-01-27T07:10:28.524Z,4.98
2023-01-27T07:13:10.605Z,5.00
2023-01-27T07:15:41.547Z,5.01
2023-01-27T07:18:16.076Z,4.96
2023-01-27T07:20:46.114Z,4.93
2023-01-27T07:23:16.140Z,4.95
2023-01-27T07:25:46.155Z,4.98
2023-01-27T07:28:16.116Z,4.99
2023-01-27T07:30:46.263Z,5.00
2023-01-27T07:33:23.878Z,4.95
2023-01-27T07:35:54.592Z,4.95
2023-01-27T07:38:24.907Z,5.00
2023-01-27T07:40:54.893Z,5.03
2023-01-27T07:43:24.937Z,4.99
2023-01-27T07:45:57.574Z,4.91
2023-01-27T07:48:35.613Z,4.92
2023-01-27T07:51:05.695Z,4.96
2023-01-27T07:53:35.696Z,5.04
2023-01-27T07:56:11.913Z,5.08
2023-01-27T07:58:42.423Z,5.11
2023-01-27T08:01:13.985Z,5.16
2023-01-27T08:03:46.581Z,5.23
2023-01-27T08:06:16.569Z,5.30
2023-01-27T08:08:46.548Z,5.32
2023-01-27T08:11:18.123Z,5.40
2023-01-27T08:13:48.148Z,5.45
2023-01-27T08:16:18.562Z,5.46
2023-01-27T08:18:51.344Z,5.54
2023-01-27T08:21:21.312Z,5.56
2023-01-27T08:23:51.602Z,5.58
2023-01-27T08:26:21.675Z,5.61
2023-01-27T08:28:51.643Z,5.63
2023-01-27T08:31:21.867Z,5.65
2023-01-27T08:33:57.285Z,5.70
2023-01-27T08:36:27.545Z,5.72
2023-01-27T08:38:58.974Z,5.75
2023-01-27T08:41:30.349Z,5.77
2023-01-27T08:44:00.311Z,5.79
2023-01-27T08:46:30.353Z,5.78
2023-01-27T08:49:03.049Z,5.78
2023-01-27T08:51:33.146Z,5.84
2023-01-27T08:54:03.168Z,5.91
2023-01-27T08:56:33.088Z,5.93
2023-01-27T08:59:03.042Z,5.99
2023-01-27T09:01:33.106Z,6.11
2023-01-27T09:04:05.824Z,6.23
2023-01-27T09:06:36.032Z,6.29
2023-01-27T09:09:12.573Z,6.32
2023-01-27T09:11:44.438Z,6.06
2023-01-27T09:14:15.239Z,6.36
2023-01-27T09:16:45.271Z,6.56
2023-01-27T09:19:21.544Z,6.66
2023-01-27T09:21:51.494Z,6.64
2023-01-27T09:24:21.549Z,6.64
2023-01-27T09:26:51.566Z,6.61
2023-01-27T09:29:21.666Z,6.59
2023-01-27T09:31:51.638Z,6.59
2023-01-27T09:34:24.277Z,6.62
2023-01-27T09:36:59.367Z,6.60
2023-01-27T09:39:31.130Z,6.59
2023-01-27T09:42:19.176Z,6.59
2023-01-27T09:45:13.917Z,6.65
2023-01-27T09:47:57.926Z,6.66
2023-01-27T09:50:55.690Z,6.69
2023-01-27T09:54:11.946Z,6.63
2023-01-27T09:56:52.554Z,6.71
2023-01-27T09:59:38.361Z,6.79
2023-01-27T10:02:19.578Z,6.76
2023-01-27T10:05:04.845Z,6.80
2023-01-27T10:07:57.206Z,6.84
2023-01-27T10:10:46.777Z,6.90
2023-01-27T10:13:26.178Z,6.87
2023-01-27T10:16:09.563Z,6.83
2023-01-27T10:18:59.762Z,6.77
2023-01-27T10:21:38.157Z,6.72
2023-01-27T10:24:23.184Z,6.72
2023-01-27T10:26:54.853Z,6.75
2023-01-27T10:29:28.162Z,6.79
2023-01-27T10:32:01.601Z,6.80
2023-01-27T10:34:36.927Z,6.81
2023-01-27T10:37:20.501Z,6.86
2023-01-27T10:40:03.630Z,6.96
2023-01-27T10:42:39.028Z,7.12
2023-01-27T10:45:22.723Z,7.31
2023-01-27T10:48:10.493Z,7.36
2023-01-27T10:50:47.622Z,7.29
2023-01-27T10:53:22.892Z,7.22
2023-01-27T10:56:02.160Z,7.24
2023-01-27T10:58:44.955Z,7.27
2023-01-27T11:01:21.369Z,7.26
2023-01-27T11:03:57.551Z,7.25
2023-01-27T11:06:32.454Z,7.17
2023-01-27T11:09:10.657Z,7.17
2023-01-27T11:11:49.332Z,7.19
2023-01-27T11:14:25.627Z,7.15
2023-01-27T11:17:03.124Z,7.11
2023-01-27T11:19:43.467Z,7.18
2023-01-27T11:22:22.666Z,7.18
2023-01-27T11:25:02.226Z,7.20
2023-01-27T11:27:51.113Z,7.31
2023-01-27T11:30:27.423Z,7.36
2023-01-27T11:33:05.459Z,7.40
2023-01-27T11:35:35.502Z,7.52
2023-01-27T11:38:15.362Z,7.55
2023-01-27T11:40:50.047Z,7.56
2023-01-27T11:43:26.896Z,7.55
2023-01-27T11:46:03.530Z,7.54
2023-01-27T11:48:41.683Z,7.63
2023-01-27T11:51:20.845Z,7.66
2023-01-27T11:53:56.299Z,7.67
2023-01-27T11:56:30.145Z,7.66
2023-01-27T11:59:08.230Z,7.66
2023-01-27T12:01:48.214Z,7.64
2023-01-27T12:04:25.026Z,7.67
2023-01-27T12:06:58.672Z,7.69
2023-01-27T12:09:39.700Z,7.71
2023-01-27T12:12:19.525Z,7.82
2023-01-27T12:14:55.195Z,7.90
2023-01-27T12:17:33.750Z,7.91
2023-01-27T12:20:09.705Z,7.91
2023-01-27T12:22:41.942Z,7.83
2023-01-27T12:25:22.504Z,7.74
2023-01-27T12:27:56.118Z,7.67
2023-01-27T12:30:31.576Z,7.61
2023-01-27T12:33:02.454Z,7.50
2023-01-27T12:35:36.806Z,7.44
2023-01-27T12:38:16.052Z,7.37
2023-01-27T12:40:49.553Z,7.28
2023-01-27T12:43:20.934Z,7.29
2023-01-27T12:46:07.826Z,7.30
2023-01-27T12:48:50.069Z,7.34
2023-01-27T12:51:23.652Z,7.37
2023-01-27T12:53:54.348Z,7.36
2023-01-27T12:56:26.574Z,7.34
2023-01-27T12:59:02.265Z,7.32
2023-01-27T13:01:41.442Z,7.25
2023-01-27T13:04:18.358Z,7.18
2023-01-27T13:06:53.035Z,7.17
2023-01-27T13:09:30.036Z,7.19
2023-01-27T13:12:03.472Z,7.15
2023-01-27T13:14:41.686Z,7.08
2023-01-27T13:17:39.126Z,7.02
2023-01-27T13:20:19.974Z,6.98
2023-01-27T13:22:52.848Z,6.95
2023-01-27T13:25:26.210Z,6.90
2023-01-27T13:28:00.986Z,6.92
2023-01-27T13:30:40.492Z,6.90
2023-01-27T13:33:27.033Z,6.92
2023-01-27T13:36:04.391Z,6.92
2023-01-27T13:38:47.735Z,6.89
2023-01-27T13:41:25.226Z,6.90
2023-01-27T13:44:05.789Z,6.88
2023-01-27T13:46:42.636Z,6.85
2023-01-27T13:49:32.058Z,6.88
2023-01-27T13:52:02.382Z,6.87
2023-01-27T13:54:32.300Z,6.86
2023-01-27T13:57:14.762Z,6.87
2023-01-27T14:00:00.226Z,6.88
2023-01-27T14:02:55.047Z,6.96
2023-01-27T14:05:41.416Z,7.02
2023-01-27T14:08:23.550Z,7.08
2023-01-27T14:11:09.847Z,7.18
2023-01-27T14:13:57.063Z,7.26
2023-01-27T14:16:37.113Z,7.27
2023-01-27T14:19:18.728Z,7.21
2023-01-27T14:21:57.504Z,7.17
2023-01-27T14:24:37.187Z,7.20
2023-01-27T14:27:14.359Z,7.16
2023-01-27T14:29:50.622Z,7.10
2023-01-27T14:32:54.263Z,7.07
2023-01-27T14:35:34.247Z,7.14
2023-01-27T14:38:14.405Z,7.12
2023-01-27T14:40:57.610Z,7.06
2023-01-27T14:43:46.795Z,6.96
2023-01-27T14:46:30.954Z,6.99
2023-01-27T14:49:11.606Z,6.93
2023-01-27T14:51:48.016Z,6.89
2023-01-27T14:54:40.156Z,6.86
2023-01-27T14:57:24.984Z,6.88
2023-01-27T15:00:04.160Z,6.81
2023-01-27T15:02:48.452Z,6.83
2023-01-27T15:05:28.451Z,6.85
2023-01-27T15:08:03.182Z,6.90
2023-01-27T15:10:36.910Z,6.91
2023-01-27T15:13:27.251Z,6.97
2023-01-27T15:16:12.044Z,6.95
2023-01-27T15:18:57.441Z,6.92
2023-01-27T15:22:03.417Z,6.86
2023-01-27T15:24:57.204Z,6.84
2023-01-27T15:27:31.041Z,6.81
2023-01-27T15:30:08.263Z,6.80
2023-01-27T15:32:40.019Z,6.75
2023-01-27T15:35:38.100Z,6.72
2023-01-27T15:38:35.994Z,6.68
2023-01-27T15:41:10.426Z,6.71
2023-01-27T15:43:46.036Z,6.74
2023-01-27T15:46:31.718Z,6.69
2023-01-27T15:49:11.060Z,6.63
2023-01-27T15:51:41.399Z,6.64
2023-01-27T15:54:20.544Z,6.62
2023-01-27T15:56:54.303Z,6.64
2023-01-27T15:59:30.601Z,6.71
2023-01-27T16:02:07.965Z,6.70
2023-01-27T16:04:38.410Z,6.68
2023-01-27T16:07:18.878Z,6.70
2023-01-27T16:09:51.987Z,6.75
2023-01-27T16:12:42.560Z,6.80
2023-01-27T16:15:39.548Z,6.84
2023-01-27T16:18:29.726Z,6.86
2023-01-27T16:21:06.625Z,6.89
2023-01-27T16:23:45.438Z,6.88
2023-01-27T16:26:32.917Z,6.88
2023-01-27T16:29:22.058Z,6.87
2023-01-27T16:32:00.209Z,6.90
2023-01-27T16:34:37.226Z,6.92
2023-01-27T16:37:20.171Z,6.90
2023-01-27T16:39:57.335Z,6.92
2023-01-27T16:42:33.428Z,6.90
2023-01-27T16:45:06.959Z,6.90
2023-01-27T16:47:47.268Z,6.91
2023-01-27T16:50:35.983Z,6.91
2023-01-27T16:53:08.353Z,6.88
2023-01-27T16:55:38.500Z,6.74
2023-01-27T16:58:17.238Z,6.66
2023-01-27T17:00:50.866Z,6.64
2023-01-27T17:03:33.207Z,6.64
2023-01-27T17:06:08.102Z,6.68
2023-01-27T17:08:46.964Z,6.70
2023-01-27T17:11:23.775Z,6.76
2023-01-27T17:14:00.451Z,6.72
2023-01-27T17:16:34.211Z,6.67
2023-01-27T17:19:13.386Z,6.63
2023-01-27T17:21:47.260Z,6.58
2023-01-27T17:24:21.831Z,6.52
2023-01-27T17:27:06.137Z,6.48
2023-01-27T17:29:39.954Z,6.44
2023-01-27T17:32:23.366Z,6.41
2023-01-27T17:34:58.701Z,6.38
2023-01-27T17:37:29.360Z,6.26
2023-01-27T17:40:03.712Z,6.12
2023-01-27T17:42:35.386Z,6.02
2023-01-27T17:45:24.756Z,5.97
2023-01-27T17:47:55.494Z,5.83
2023-01-27T17:50:40.258Z,5.72
2023-01-27T17:53:14.838Z,5.66
2023-01-27T17:55:45.042Z,5.65
2023-01-27T17:58:24.829Z,5.68
2023-01-27T18:00:56.534Z,5.72
2023-01-27T18:03:30.061Z,5.81
2023-01-27T18:06:03.432Z,5.85
2023-01-27T18:08:36.617Z,5.86
2023-01-27T18:11:31.288Z,5.88
2023-01-27T18:14:04.034Z,5.95
2023-01-27T18:16:34.285Z,6.02
2023-01-27T18:19:21.285Z,6.13
2023-01-27T18:22:04.573Z,6.18
2023-01-27T18:24:35.320Z,6.20
2023-01-27T18:27:05.539Z,6.18
2023-01-27T18:29:40.111Z,6.14
2023-01-27T18:32:19.645Z,6.10
2023-01-27T18:34:51.420Z,6.08
2023-01-27T18:37:33.016Z,6.06
2023-01-27T18:40:05.418Z,5.99
2023-01-27T18:42:35.762Z,5.90
2023-01-27T18:45:05.734Z,5.89
2023-01-27T18:47:39.170Z,5.88
2023-01-27T18:50:20.059Z,5.88
2023-01-27T18:52:53.912Z,5.90
2023-01-27T18:55:28.628Z,5.87
2023-01-27T18:58:06.362Z,5.86
2023-01-27T19:00:45.198Z,5.83
2023-01-27T19:03:19.407Z,5.83
2023-01-27T19:05:51.060Z,5.85
2023-01-27T19:08:24.854Z,5.85
2023-01-27T19:10:55.354Z,5.79
2023-01-27T19:13:28.450Z,5.73
2023-01-27T19:16:01.822Z,5.69
2023-01-27T19:18:35.877Z,5.69
2023-01-27T19:21:09.278Z,5.65
2023-01-27T19:23:47.414Z,5.62
2023-01-27T19:26:20.920Z,5.67
2023-01-27T19:28:55.048Z,5.72
2023-01-27T19:31:25.331Z,5.73
2023-01-27T19:33:56.857Z,5.72
2023-01-27T19:36:32.927Z,5.73
2023-01-27T19:39:15.405Z,5.71
2023-01-27T19:41:47.209Z,5.69
2023-01-27T19:44:18.883Z,5.72
2023-01-27T19:46:51.637Z,5.73
2023-01-27T19:49:22.740Z,5.63
2023-01-27T19:51:53.395Z,5.54
2023-01-27T19:54:27.453Z,5.50
2023-01-27T19:56:57.664Z,5.48
2023-01-27T19:59:30.148Z,5.57
2023-01-27T20:02:00.708Z,5.55
2023-01-27T20:04:31.248Z,5.54
2023-01-27T20:07:04.635Z,5.50
2023-01-27T20:09:37.405Z,5.41
2023-01-27T20:12:07.544Z,5.44
2023-01-27T20:14:37.687Z,5.41
2023-01-27T20:17:07.905Z,5.39
2023-01-27T20:19:42.671Z,5.34
2023-01-27T20:22:36.746Z,5.32
2023-01-27T20:25:14.233Z,5.39
2023-01-27T20:27:45.392Z,5.36
2023-01-27T20:30:18.705Z,5.35
2023-01-27T20:32:49.191Z,5.31
2023-01-27T20:35:21.166Z,5.29
2023-01-27T20:37:52.593Z,5.30
2023-01-27T20:40:27.223Z,5.26
2023-01-27T20:42:59.317Z,5.21
2023-01-27T20:45:29.270Z,5.16
2023-01-27T20:47:59.811Z,5.08
2023-01-27T20:50:29.757Z,5.02
2023-01-27T20:52:59.745Z,4.94
2023-01-27T20:55:32.333Z,4.91
2023-01-27T20:58:07.605Z,4.89
2023-01-27T21:00:37.535Z,4.85
2023-01-27T21:03:07.499Z,4.86
2023-01-27T21:05:38.072Z,4.80
2023-01-27T21:08:08.150Z,4.73
2023-01-27T21:10:41.032Z,4.68
2023-01-27T21:13:11.008Z,4.66
2023-01-27T21:15:41.022Z,4.67
2023-01-27T21:18:11.080Z,4.57
2023-01-27T21:20:41.149Z,4.49
2023-01-27T21:23:11.159Z,4.38
2023-01-27T21:25:45.119Z,4.25
2023-01-27T21:28:15.189Z,4.22
2023-01-27T21:30:45.349Z,4.13
2023-01-27T21:33:17.146Z,4.02
2023-01-27T21:35:47.183Z,4.01
2023-01-27T21:38:19.142Z,4.01
2023-01-27T21:40:54.873Z,4.00
2023-01-27T21:43:37.340Z,3.99
2023-01-27T21:46:07.594Z,3.90
2023-01-27T21:48:37.668Z,3.87
2023-01-27T21:51:30.800Z,3.83
2023-01-27T21:54:00.940Z,3.78
2023-01-27T21:56:36.088Z,3.71
2023-01-27T21:59:06.342Z,3.64
2023-01-27T22:01:36.452Z,3.55
2023-01-27T22:04:07.289Z,3.51
2023-01-27T22:06:37.429Z,3.56
2023-01-27T22:09:07.460Z,3.59
2023-01-27T22:11:40.057Z,3.58
2023-01-27T22:14:10.024Z,3.58
2023-01-27T22:16:40.121Z,3.57
2023-01-27T22:19:10.076Z,3.56
2023-01-27T22:21:40.284Z,3.53
2023-01-27T22:24:12.524Z,3.49
2023-01-27T22:26:45.203Z,3.50
2023-01-27T22:29:15.468Z,3.56
2023-01-27T22:31:45.476Z,3.49
2023-01-27T22:34:15.503Z,3.50
2023-01-27T22:36:45.471Z,3.49
2023-01-27T22:39:15.432Z,3.45
2023-01-27T22:41:50.365Z,3.42
2023-01-27T22:44:21.283Z,3.35
2023-01-27T22:46:51.978Z,3.33
2023-01-27T22:49:21.928Z,3.29
2023-01-27T22:51:54.229Z,3.28
2023-01-27T22:54:24.219Z,3.25
2023-01-27T22:56:56.800Z,3.16
2023-01-27T22:59:33.019Z,3.11
2023-01-27T23:02:03.818Z,3.04
2023-01-27T23:04:36.473Z,3.02
2023-01-27T23:07:06.463Z,3.02
2023-01-27T23:09:36.466Z,2.95
2023-01-27T23:12:09.488Z,2.89
2023-01-27T23:14:39.935Z,2.91
2023-01-27T23:17:12.053Z,2.85
2023-01-27T23:19:42.005Z,2.81
2023-01-27T23:22:12.023Z,2.75
2023-01-27T23:24:42.054Z,2.74
2023-01-27T23:27:14.597Z,2.74
2023-01-27T23:29:44.658Z,2.70
2023-01-27T23:32:16.878Z,2.68
2023-01-27T23:34:48.094Z,2.67
2023-01-27T23:37:18.147Z,2.63
2023-01-27T23:39:49.741Z,2.60
2023-01-27T23:42:22.861Z,2.60
2023-01-27T23:44:52.946Z,2.65
2023-01-27T23:47:23.010Z,2.65
2023-01-27T23:49:52.983Z,2.61
2023-01-27T23:52:23.149Z,2.56
2023-01-27T23:54:53.702Z,2.53
2023-01-27T23:57:26.675Z,2.55
2023-01-27T23:59:56.626Z,2.58
